Terminal Aerodrome Forecast
Issued by NWS

Home | Current Version | Previous Version | Text Only | Print | Product List | Glossary On
Versions: 1 2 3 4 5 6 7 8 9 10 11 12 13 14 15 16 17 18
000
FTUS42 KMLB 271731
TAFTIX
TAF
KTIX 271731Z 2718/2818 28015KT P6SM VCSH SCT050 OVC100
      TEMPO 2718/2722 SHRA BKN040
     FM280100 VRB04KT P6SM VCSH FEW025 BKN120
     FM281300 11006KT P6SM VCSH SCT015 BKN030=

USA.gov is the U.S. government's official web portal to all federal, state and local government web resources and services.